Time;durP1;ratioP1;P1;durP2;ratioP2;P2;SDS_P1;SDS_P2;PMS_P1;PMS_P2;Temp;Humidity;BMP_temperature;BMP_pressure;BME280_temperature;BME280_humidity;BME280_pressure;Samples;Min_cycle;Max_cycle;Signal;HPM_P1;HPM_P2
2023/06/14 00:02:18;;;;;;;5.60;3.00;;;16.30;99.90;;;;;;5095023;28;20317;-55
2023/06/14 00:04:48;;;;;;;5.13;3.10;;;16.30;99.90;;;;;;5088901;28;20223;-55
2023/06/14 00:07:18;;;;;;;6.73;3.30;;;16.20;99.90;;;;;;5057074;28;20278;-55
2023/06/14 00:09:46;;;;;;;5.23;2.90;;;16.20;99.90;;;;;;5074885;28;20254;-55
2023/06/14 00:12:14;;;;;;;5.67;3.00;;;16.20;99.90;;;;;;5082092;28;20243;-55
2023/06/14 00:14:42;;;;;;;4.80;2.63;;;16.20;99.90;;;;;;5087935;28;20215;-55
2023/06/14 00:17:10;;;;;;;5.00;2.37;;;16.20;99.90;;;;;;5103449;28;20761;-54
2023/06/14 00:19:40;;;;;;;4.63;2.97;;;16.20;99.90;;;;;;5086930;28;20270;-56
2023/06/14 00:22:08;;;;;;;4.60;2.77;;;16.20;99.90;;;;;;5074880;28;20700;-55
2023/06/14 00:24:37;;;;;;;3.77;2.93;;;16.10;99.90;;;;;;5090042;28;20223;-54
2023/06/14 00:27:06;;;;;;;3.77;2.70;;;16.10;99.90;;;;;;5076128;28;20263;-54
2023/06/14 00:29:35;;;;;;;4.77;2.77;;;16.00;99.90;;;;;;5094701;28;20223;-54
2023/06/14 00:32:05;;;;;;;3.90;2.90;;;16.00;99.90;;;;;;5094279;28;20227;-54
2023/06/14 00:34:33;;;;;;;5.57;2.80;;;16.00;99.90;;;;;;5079176;28;20223;-56
2023/06/14 00:37:02;;;;;;;5.07;3.00;;;16.00;99.90;;;;;;5094525;28;20302;-54
2023/06/14 00:39:30;;;;;;;7.97;2.77;;;16.00;99.90;;;;;;5094530;28;20309;-55
2023/06/14 00:41:59;;;;;;;4.83;2.93;;;16.00;99.90;;;;;;5094337;28;20219;-55
2023/06/14 00:44:27;;;;;;;6.73;2.97;;;15.90;99.90;;;;;;5092984;28;20305;-54
2023/06/14 00:46:56;;;;;;;4.57;2.40;;;15.90;99.90;;;;;;5094143;28;20227;-56
2023/06/14 00:49:25;;;;;;;4.00;2.50;;;15.90;99.90;;;;;;5086740;28;20227;-55
2023/06/14 00:51:54;;;;;;;4.33;2.60;;;15.90;99.90;;;;;;5074268;28;20217;-55
2023/06/14 00:54:22;;;;;;;4.87;2.70;;;15.90;99.90;;;;;;5085022;28;20301;-55
2023/06/14 00:56:50;;;;;;;4.17;2.77;;;15.90;99.90;;;;;;5087233;28;20246;-54
2023/06/14 00:59:20;;;;;;;6.30;2.73;;;15.80;99.90;;;;;;5086903;28;20784;-55
2023/06/14 01:01:48;;;;;;;5.03;2.70;;;15.80;99.90;;;;;;5092349;28;20705;-56
2023/06/14 01:04:17;;;;;;;4.87;2.60;;;15.80;99.90;;;;;;5090417;28;20222;-55
2023/06/14 01:06:54;;;;;;;3.63;2.97;;;15.80;99.90;;;;;;5093859;28;20302;-55
2023/06/14 01:09:31;;;;;;;5.70;2.90;;;15.80;99.90;;;;;;5094071;28;20249;-53
2023/06/14 01:12:08;;;;;;;5.83;2.93;;;15.70;99.90;;;;;;5089331;28;20222;-56
2023/06/14 01:14:38;;;;;;;7.57;3.30;;;15.70;99.90;;;;;;5091763;28;20219;-53
2023/06/14 01:17:15;;;;;;;6.73;3.20;;;15.70;99.90;;;;;;5090192;28;20309;-54
2023/06/14 01:19:44;;;;;;;4.23;2.83;;;15.70;99.90;;;;;;5093993;28;20668;-56
2023/06/14 01:22:15;;;;;;;4.53;3.13;;;15.70;99.90;;;;;;5104907;28;20713;-55
2023/06/14 01:24:44;;;;;;;4.37;3.03;;;15.60;99.90;;;;;;5091611;28;20215;-55
2023/06/14 01:27:15;;;;;;;7.97;3.00;;;15.60;99.90;;;;;;5093762;28;20250;-56
2023/06/14 01:29:45;;;;;;;5.83;3.10;;;15.50;99.90;;;;;;5093505;28;20242;-55
2023/06/14 01:32:15;;;;;;;6.17;3.30;;;15.50;99.90;;;;;;5090365;28;20302;-55
2023/06/14 01:34:44;;;;;;;5.70;3.20;;;15.50;99.90;;;;;;5092651;28;20689;-55
2023/06/14 01:37:13;;;;;;;4.87;3.03;;;15.50;99.90;;;;;;5080827;28;20227;-55
2023/06/14 01:39:42;;;;;;;3.63;3.10;;;15.50;99.90;;;;;;5054993;28;20782;-55
2023/06/14 01:42:13;;;;;;;4.97;2.60;;;15.50;99.90;;;;;;5063455;28;20319;-54
2023/06/14 01:44:43;;;;;;;6.50;3.20;;;15.50;99.90;;;;;;5082426;28;20219;-56
2023/06/14 01:47:12;;;;;;;5.53;3.03;;;15.40;99.90;;;;;;5101715;28;20207;-54
2023/06/14 01:49:41;;;;;;;4.90;3.60;;;15.50;99.90;;;;;;5060218;28;20278;-55
2023/06/14 01:52:10;;;;;;;5.90;3.23;;;15.50;99.90;;;;;;5077422;28;20220;-54
2023/06/14 01:54:41;;;;;;;3.50;3.10;;;15.40;99.90;;;;;;5092823;28;20302;-55
2023/06/14 01:57:10;;;;;;;4.97;3.17;;;15.30;99.90;;;;;;5093084;28;20233;-55
2023/06/14 01:59:39;;;;;;;5.00;3.13;;;15.30;99.90;;;;;;5061150;28;20219;-55
2023/06/14 02:02:08;;;;;;;6.73;3.50;;;15.30;99.90;;;;;;5065077;28;20301;-54
2023/06/14 02:04:36;;;;;;;3.87;3.00;;;15.20;99.90;;;;;;5073990;28;20559;-54
2023/06/14 02:07:04;;;;;;;4.80;3.43;;;15.30;99.90;;;;;;5074902;28;20317;-55
2023/06/14 02:09:32;;;;;;;5.17;3.23;;;15.20;99.90;;;;;;5090581;28;20246;-54
2023/06/14 02:12:00;;;;;;;5.00;3.20;;;15.20;99.90;;;;;;5075830;28;20232;-54
2023/06/14 02:14:28;;;;;;;5.63;3.30;;;15.20;99.90;;;;;;5092723;28;20292;-56
2023/06/14 02:16:58;;;;;;;8.97;3.63;;;15.20;99.90;;;;;;5101190;28;20621;-55
2023/06/14 02:19:26;;;;;;;5.10;3.30;;;15.20;99.90;;;;;;5069850;28;20313;-55
2023/06/14 02:21:54;;;;;;;4.80;3.30;;;15.20;99.90;;;;;;5067237;28;20223;-55
2023/06/14 02:24:23;;;;;;;6.07;3.30;;;15.20;99.90;;;;;;5092597;28;20360;-54
2023/06/14 02:26:51;;;;;;;4.90;3.40;;;15.10;99.90;;;;;;5074468;28;20698;-54
2023/06/14 02:29:19;;;;;;;6.30;3.13;;;15.10;99.90;;;;;;5065517;28;20262;-56
2023/06/14 02:31:48;;;;;;;8.27;3.27;;;15.10;99.90;;;;;;5075280;28;20660;-55
2023/06/14 02:34:19;;;;;;;4.30;3.27;;;15.20;99.90;;;;;;5085349;28;20218;-54
2023/06/14 02:36:48;;;;;;;9.03;3.20;;;15.10;99.90;;;;;;5074383;28;20234;-56
2023/06/14 02:39:16;;;;;;;5.87;3.43;;;15.10;99.90;;;;;;5092393;28;20253;-54
2023/06/14 02:41:44;;;;;;;6.07;3.40;;;15.10;99.90;;;;;;5091735;28;20222;-55
2023/06/14 02:44:13;;;;;;;6.73;3.30;;;15.10;99.90;;;;;;5092505;28;20301;-54
2023/06/14 02:46:43;;;;;;;7.10;3.70;;;15.00;99.90;;;;;;5100701;28;20852;-55
2023/06/14 02:49:12;;;;;;;5.63;3.37;;;15.00;99.90;;;;;;5075037;28;20230;-55
2023/06/14 02:51:41;;;;;;;4.20;3.00;;;15.00;99.90;;;;;;5076563;28;20219;-56
2023/06/14 02:54:10;;;;;;;6.50;3.20;;;15.00;99.90;;;;;;5096551;28;20211;-54
2023/06/14 02:56:39;;;;;;;5.60;3.90;;;15.00;99.90;;;;;;5078139;28;20297;-56
2023/06/14 02:59:09;;;;;;;6.23;3.70;;;15.00;99.90;;;;;;5077874;28;20805;-55
2023/06/14 03:01:40;;;;;;;4.93;3.70;;;14.90;99.90;;;;;;5067008;28;20227;-55
2023/06/14 03:04:11;;;;;;;6.33;4.00;;;14.90;99.90;;;;;;5092840;28;20227;-54
2023/06/14 03:06:43;;;;;;;7.13;3.53;;;14.90;99.90;;;;;;5089298;28;20551;-56
2023/06/14 03:09:12;;;;;;;6.80;3.63;;;14.90;99.90;;;;;;5080689;28;20763;-53
2023/06/14 03:11:41;;;;;;;5.03;3.60;;;14.90;99.90;;;;;;5058028;28;20227;-54
2023/06/14 03:14:09;;;;;;;5.33;3.53;;;14.90;99.90;;;;;;5094547;28;20297;-53
2023/06/14 03:16:38;;;;;;;8.00;3.40;;;14.90;99.90;;;;;;5086021;28;20222;-54
2023/06/14 03:19:08;;;;;;;6.73;3.50;;;14.90;99.90;;;;;;5078644;28;20243;-54
2023/06/14 03:21:36;;;;;;;5.47;3.90;;;14.90;99.90;;;;;;5068473;28;20677;-55
2023/06/14 03:24:07;;;;;;;8.00;3.77;;;14.90;99.90;;;;;;5095242;28;20222;-54
2023/06/14 03:26:36;;;;;;;4.53;3.40;;;14.80;99.90;;;;;;5077595;28;20314;-55
2023/06/14 03:29:05;;;;;;;6.03;3.77;;;14.80;99.90;;;;;;5072122;28;20317;-55
2023/06/14 03:31:35;;;;;;;4.93;3.17;;;14.80;99.90;;;;;;5075241;28;20318;-54
2023/06/14 03:34:05;;;;;;;6.27;3.43;;;14.80;99.90;;;;;;5080890;28;20276;-55
2023/06/14 03:36:34;;;;;;;5.00;3.57;;;14.90;99.90;;;;;;5086524;28;20590;-55
2023/06/14 03:39:02;;;;;;;4.77;3.50;;;14.90;99.90;;;;;;5087593;28;20322;-55
2023/06/14 03:41:32;;;;;;;6.50;3.80;;;14.90;99.90;;;;;;5057753;28;20273;-55
2023/06/14 03:44:00;;;;;;;5.50;3.50;;;15.00;99.90;;;;;;5077470;28;20222;-55
2023/06/14 03:46:28;;;;;;;6.33;4.07;;;15.10;99.90;;;;;;5102569;28;20594;-55
2023/06/14 03:48:57;;;;;;;5.60;3.80;;;15.10;99.90;;;;;;5100575;28;20211;-55
2023/06/14 03:51:25;;;;;;;6.13;3.67;;;15.10;99.90;;;;;;5057352;28;20234;-56
2023/06/14 03:53:54;;;;;;;5.43;3.80;;;15.20;99.90;;;;;;5070974;28;20347;-56
2023/06/14 03:56:27;;;;;;;5.03;3.90;;;15.20;99.90;;;;;;5076826;28;20268;-55
2023/06/14 03:58:57;;;;;;;5.30;3.60;;;15.30;99.90;;;;;;5073837;28;20658;-55
2023/06/14 04:01:29;;;;;;;7.57;3.87;;;15.50;99.90;;;;;;5055600;28;20235;-55
2023/06/14 04:03:59;;;;;;;5.90;3.70;;;15.50;99.90;;;;;;5085249;28;20795;-56
2023/06/14 04:06:32;;;;;;;4.97;3.37;;;15.60;99.90;;;;;;5084356;28;20265;-56
2023/06/14 04:09:04;;;;;;;5.63;4.03;;;15.70;99.90;;;;;;5089286;28;20234;-55
2023/06/14 04:11:35;;;;;;;5.57;3.77;;;15.70;99.90;;;;;;5058700;28;20231;-56
2023/06/14 04:14:06;;;;;;;8.47;3.97;;;15.80;99.90;;;;;;5077606;28;20226;-55
2023/06/14 04:16:34;;;;;;;5.10;3.70;;;15.80;99.90;;;;;;5076496;28;20242;-55
2023/06/14 04:19:03;;;;;;;7.13;3.67;;;15.80;99.90;;;;;;5073178;28;20299;-56
2023/06/14 04:21:31;;;;;;;4.93;3.67;;;16.00;99.90;;;;;;5074597;28;20220;-56
2023/06/14 04:24:01;;;;;;;7.17;3.83;;;16.00;99.90;;;;;;5084725;28;20263;-56
2023/06/14 04:26:33;;;;;;;5.47;3.73;;;16.20;99.90;;;;;;5075385;28;20223;-56
2023/06/14 04:29:02;;;;;;;5.77;4.00;;;16.20;99.90;;;;;;5076760;28;20215;-56
2023/06/14 04:31:37;;;;;;;6.93;3.93;;;16.20;99.90;;;;;;5089056;28;20242;-56
2023/06/14 04:34:07;;;;;;;7.43;3.93;;;16.30;99.90;;;;;;5067347;28;20219;-56
2023/06/14 04:36:37;;;;;;;6.33;4.13;;;16.20;99.90;;;;;;5072598;28;20313;-55
2023/06/14 04:39:05;;;;;;;8.57;4.43;;;16.30;99.90;;;;;;5094694;28;20268;-56
2023/06/14 04:41:34;;;;;;;6.63;4.00;;;16.40;99.90;;;;;;5075884;28;20228;-56
2023/06/14 04:44:03;;;;;;;5.33;4.07;;;16.40;99.90;;;;;;5080126;28;20277;-56
2023/06/14 04:46:45;;;;;;;7.37;3.90;;;16.50;99.90;;;;;;5089182;28;20217;-56
2023/06/14 04:49:17;;;;;;;7.17;3.90;;;16.70;99.90;;;;;;5081132;28;20241;-56
2023/06/14 04:51:50;;;;;;;5.00;3.97;;;16.80;99.90;;;;;;5074931;28;20678;-56
2023/06/14 04:54:19;;;;;;;4.50;3.80;;;16.90;99.90;;;;;;5090636;28;20246;-56
2023/06/14 04:56:48;;;;;;;7.77;3.73;;;17.00;99.90;;;;;;5073922;28;20276;-55
2023/06/14 04:59:17;;;;;;;7.87;3.93;;;17.00;99.90;;;;;;5094245;28;20219;-56
2023/06/14 05:01:48;;;;;;;5.73;3.93;;;17.10;99.90;;;;;;5093563;28;20313;-56
2023/06/14 05:04:16;;;;;;;11.63;4.20;;;17.20;99.90;;;;;;5073896;28;20225;-57
2023/06/14 05:06:44;;;;;;;5.07;4.00;;;17.40;99.90;;;;;;5091928;28;20722;-56
2023/06/14 05:09:14;;;;;;;7.27;4.10;;;17.50;99.90;;;;;;5075637;28;20219;-56
2023/06/14 05:11:44;;;;;;;5.70;3.70;;;17.60;99.90;;;;;;5081021;28;20320;-56
2023/06/14 05:14:12;;;;;;;6.00;3.50;;;17.70;99.90;;;;;;5083333;28;20269;-56
2023/06/14 05:16:41;;;;;;;5.53;3.90;;;17.80;99.90;;;;;;5072666;28;20218;-56
2023/06/14 05:19:11;;;;;;;5.13;3.60;;;18.00;99.90;;;;;;5106362;28;20691;-56
2023/06/14 05:21:39;;;;;;;4.70;3.30;;;18.10;99.90;;;;;;5090670;28;20307;-55
2023/06/14 05:24:11;;;;;;;4.73;3.23;;;18.10;99.90;;;;;;5093012;28;20312;-56
2023/06/14 05:26:39;;;;;;;6.80;3.50;;;18.30;99.90;;;;;;5093372;28;20242;-56
2023/06/14 05:29:07;;;;;;;6.93;4.20;;;18.40;99.90;;;;;;5093772;28;20289;-56
2023/06/14 05:31:35;;;;;;;7.13;3.63;;;18.60;99.90;;;;;;5088802;28;20242;-56
2023/06/14 05:34:03;;;;;;;7.67;4.13;;;18.70;99.90;;;;;;5077213;28;20225;-57
2023/06/14 05:36:33;;;;;;;5.53;4.07;;;18.80;99.90;;;;;;5086643;28;20239;-55
2023/06/14 05:39:02;;;;;;;6.97;3.57;;;18.80;99.90;;;;;;5093469;28;20235;-56
2023/06/14 05:41:31;;;;;;;7.80;3.90;;;19.00;99.90;;;;;;5093377;28;20222;-56
2023/06/14 05:43:59;;;;;;;8.87;4.30;;;19.00;99.90;;;;;;5086513;28;20651;-56
2023/06/14 05:46:28;;;;;;;8.83;4.37;;;19.10;99.90;;;;;;5083487;28;20228;-56
2023/06/14 05:48:56;;;;;;;7.77;4.00;;;19.30;99.90;;;;;;5075226;28;20906;-57
2023/06/14 05:51:26;;;;;;;9.87;4.30;;;19.40;99.90;;;;;;5072265;28;20268;-57
2023/06/14 05:53:56;;;;;;;6.40;3.90;;;19.60;99.90;;;;;;5073548;28;20629;-57
2023/06/14 05:56:25;;;;;;;5.67;3.63;;;19.80;99.90;;;;;;5073023;28;20229;-56
2023/06/14 05:58:53;;;;;;;4.53;3.60;;;20.00;99.90;;;;;;5073504;28;20233;-57
2023/06/14 06:01:21;;;;;;;5.80;3.27;;;20.20;99.90;;;;;;5072448;28;21443;-57
2023/06/14 06:03:50;;;;;;;7.27;3.60;;;20.40;99.90;;;;;;5074228;28;20230;-56
2023/06/14 06:06:19;;;;;;;6.90;4.17;;;20.60;99.90;;;;;;5071835;28;20336;-56
2023/06/14 06:08:47;;;;;;;11.53;3.90;;;20.60;99.90;;;;;;5070360;28;20774;-57
2023/06/14 06:11:16;;;;;;;6.43;3.50;;;20.70;99.90;;;;;;5073670;28;20226;-56
2023/06/14 06:13:44;;;;;;;5.70;3.40;;;20.70;99.90;;;;;;5072696;28;20830;-57
2023/06/14 06:16:12;;;;;;;6.43;3.17;;;20.90;99.90;;;;;;5072210;28;20700;-57
2023/06/14 06:18:40;;;;;;;5.20;3.37;;;21.00;99.90;;;;;;5072542;28;20238;-57
2023/06/14 06:21:10;;;;;;;7.57;3.80;;;21.20;99.90;;;;;;5073509;28;20230;-56
2023/06/14 06:23:38;;;;;;;5.60;3.57;;;21.40;99.90;;;;;;5073136;28;20240;-57
2023/06/14 06:26:06;;;;;;;6.60;4.13;;;21.40;99.90;;;;;;5078516;28;20231;-56
2023/06/14 06:28:35;;;;;;;4.80;3.80;;;21.50;99.90;;;;;;5079915;28;20219;-56
2023/06/14 06:31:04;;;;;;;5.67;2.87;;;21.50;99.90;;;;;;5077364;28;20722;-56
2023/06/14 06:33:36;;;;;;;7.60;3.53;;;21.70;99.90;;;;;;5076738;28;20233;-56
2023/06/14 06:36:05;;;;;;;7.03;3.17;;;21.40;99.90;;;;;;5078301;28;20254;-57
2023/06/14 06:38:33;;;;;;;7.70;3.40;;;21.40;99.90;;;;;;5076579;28;20226;-56
2023/06/14 06:41:02;;;;;;;10.20;3.77;;;21.60;99.90;;;;;;5077929;28;20225;-57
2023/06/14 06:43:30;;;;;;;11.00;3.70;;;21.80;99.90;;;;;;5078322;28;20223;-63
2023/06/14 06:46:02;;;;;;;7.33;3.83;;;21.90;99.90;;;;;;5061022;28;20292;-60
2023/06/14 06:48:30;;;;;;;4.57;3.77;;;22.20;99.90;;;;;;5077486;28;20225;-65
2023/06/14 06:50:58;;;;;;;8.13;3.83;;;22.20;99.90;;;;;;5077226;28;20697;-60
2023/06/14 06:53:26;;;;;;;5.57;3.70;;;22.30;99.90;;;;;;5076942;28;20301;-64
2023/06/14 06:56:09;;;;;;;5.70;3.20;;;22.40;99.90;;;;;;5078064;28;21624;-64
2023/06/14 06:58:37;;;;;;;5.87;3.43;;;22.30;99.90;;;;;;5076090;28;20222;-61
2023/06/14 07:01:09;;;;;;;5.00;3.10;;;22.50;99.90;;;;;;5080099;28;20272;-63
2023/06/14 07:03:37;;;;;;;6.60;3.53;;;22.70;99.90;;;;;;5084341;28;20305;-64
2023/06/14 07:06:05;;;;;;;5.70;3.40;;;22.70;99.90;;;;;;5082936;28;20237;-60
2023/06/14 07:08:34;;;;;;;4.90;3.27;;;22.60;99.90;;;;;;5076987;28;20215;-59
2023/06/14 07:11:02;;;;;;;5.57;3.20;;;22.80;99.90;;;;;;5078382;28;20245;-64
2023/06/14 07:13:30;;;;;;;6.93;3.60;;;22.90;99.90;;;;;;5077767;28;20834;-64
2023/06/14 07:16:00;;;;;;;7.73;3.40;;;23.00;99.90;;;;;;5078722;28;20254;-62
2023/06/14 07:18:30;;;;;;;7.43;3.57;;;23.00;99.90;;;;;;5057223;28;20243;-60
2023/06/14 07:20:59;;;;;;;5.30;3.30;;;23.20;99.90;;;;;;5077467;28;20301;-62
2023/06/14 07:23:27;;;;;;;4.77;2.77;;;23.30;99.90;;;;;;5077009;28;20237;-59
2023/06/14 07:25:55;;;;;;;4.83;3.17;;;23.60;99.90;;;;;;5076679;28;20701;-65
2023/06/14 07:28:23;;;;;;;5.77;3.43;;;24.00;99.90;;;;;;5083596;28;20620;-61
2023/06/14 07:30:51;;;;;;;4.30;2.80;;;24.10;99.90;;;;;;5085171;28;20717;-63
2023/06/14 07:33:19;;;;;;;6.80;3.13;;;24.20;99.90;;;;;;5087140;28;20692;-63
2023/06/14 07:35:50;;;;;;;5.43;2.90;;;23.90;99.90;;;;;;5084915;28;20214;-63
2023/06/14 07:38:18;;;;;;;7.00;3.10;;;24.00;99.90;;;;;;5090284;28;20749;-63
2023/06/14 07:40:46;;;;;;;7.40;3.07;;;24.20;99.90;;;;;;5091283;28;20309;-61
2023/06/14 07:43:14;;;;;;;7.63;3.10;;;24.40;99.90;;;;;;5090819;28;20230;-63
2023/06/14 07:45:42;;;;;;;6.67;3.07;;;24.00;99.90;;;;;;5088360;28;20757;-59
2023/06/14 07:48:29;;;;;;;5.83;3.00;;;24.20;99.90;;;;;;5086714;28;20215;-61
2023/06/14 07:51:01;;;;;;;7.13;3.37;;;24.50;99.90;;;;;;5088052;28;20223;-63
2023/06/14 07:53:30;;;;;;;5.33;2.90;;;24.50;99.90;;;;;;5089454;28;20587;-64
2023/06/14 07:55:59;;;;;;;5.47;2.70;;;24.20;99.90;;;;;;5088960;28;20869;-64
2023/06/14 07:58:28;;;;;;;6.60;2.87;;;24.10;99.90;;;;;;5087264;28;21966;-64
2023/06/14 08:00:56;;;;;;;5.87;2.60;;;24.00;99.90;;;;;;5090193;28;20275;-63
2023/06/14 08:03:24;;;;;;;3.33;2.70;;;24.10;99.90;;;;;;5081251;28;20231;-63
2023/06/14 08:05:53;;;;;;;4.73;2.60;;;24.20;99.90;;;;;;5062819;28;20236;-59
2023/06/14 08:08:23;;;;;;;5.57;2.27;;;24.50;99.90;;;;;;5078224;28;20241;-62
2023/06/14 08:10:51;;;;;;;5.20;2.70;;;25.00;99.90;;;;;;5080894;28;20227;-63
2023/06/14 08:13:19;;;;;;;4.03;2.13;;;24.80;99.90;;;;;;5079458;28;20247;-62
2023/06/14 08:15:47;;;;;;;4.40;2.30;;;24.80;99.90;;;;;;5088676;28;20227;-62
2023/06/14 08:18:15;;;;;;;4.17;2.37;;;24.90;99.90;;;;;;5086895;28;20257;-63
2023/06/14 08:20:43;;;;;;;6.77;2.30;;;25.20;99.90;;;;;;5088576;28;20232;-61
2023/06/14 08:23:11;;;;;;;5.20;2.20;;;25.30;99.90;;;;;;5087189;28;20588;-63
2023/06/14 08:25:41;;;;;;;3.40;2.17;;;25.40;99.90;;;;;;5089155;28;20219;-63
2023/06/14 08:28:09;;;;;;;4.57;2.57;;;25.50;99.90;;;;;;5086320;28;20245;-63
2023/06/14 08:30:37;;;;;;;3.20;2.20;;;25.30;99.90;;;;;;5090386;28;20237;-63
2023/06/14 08:33:05;;;;;;;3.50;2.53;;;25.20;99.90;;;;;;5088015;28;20270;-60
2023/06/14 08:35:43;;;;;;;3.67;2.17;;;25.20;99.90;;;;;;5087893;28;20229;-60
2023/06/14 08:38:12;;;;;;;3.10;2.30;;;25.40;99.90;;;;;;5088296;28;20227;-63
2023/06/14 08:40:42;;;;;;;4.67;2.27;;;25.40;99.90;;;;;;5087631;28;20315;-63
2023/06/14 08:43:10;;;;;;;6.33;2.57;;;25.50;99.90;;;;;;5089124;28;20712;-61
2023/06/14 08:45:39;;;;;;;4.10;2.07;;;25.10;99.90;;;;;;5088571;28;20731;-62
2023/06/14 08:48:09;;;;;;;3.97;2.80;;;25.40;99.90;;;;;;5085620;28;20217;-64
2023/06/14 08:50:41;;;;;;;5.93;2.77;;;25.50;99.90;;;;;;5088388;28;20222;-63
2023/06/14 08:53:13;;;;;;;3.53;2.20;;;25.60;99.90;;;;;;5087265;28;20229;-63
2023/06/14 08:55:43;;;;;;;8.73;2.50;;;25.90;99.90;;;;;;5089093;28;21334;-61
2023/06/14 08:58:14;;;;;;;4.33;2.43;;;25.90;99.90;;;;;;5087715;28;20266;-60
2023/06/14 09:00:44;;;;;;;6.33;2.70;;;25.90;99.90;;;;;;5079177;28;21003;-60
2023/06/14 09:03:14;;;;;;;2.90;2.23;;;25.90;99.90;;;;;;5080712;28;20357;-61
2023/06/14 09:05:43;;;;;;;5.80;2.57;;;25.90;99.90;;;;;;5080290;28;20311;-62
2023/06/14 09:08:12;;;;;;;5.73;2.40;;;26.40;99.90;;;;;;5079003;28;20250;-63
2023/06/14 09:10:43;;;;;;;6.87;2.60;;;26.60;99.90;;;;;;5080229;28;20218;-60
2023/06/14 09:13:11;;;;;;;4.33;2.40;;;26.80;99.90;;;;;;5085896;28;20227;-57
2023/06/14 09:15:39;;;;;;;3.30;2.33;;;27.00;99.90;;;;;;5087518;28;20643;-58
2023/06/14 09:18:07;;;;;;;5.23;2.50;;;27.20;99.90;;;;;;5089974;28;20222;-57
2023/06/14 09:20:36;;;;;;;4.40;2.70;;;27.00;98.90;;;;;;5089660;28;20224;-57
2023/06/14 09:23:07;;;;;;;7.47;2.70;;;26.90;99.40;;;;;;5089764;28;20265;-57
2023/06/14 09:25:44;;;;;;;4.13;2.60;;;26.90;98.80;;;;;;5090080;28;20256;-57
2023/06/14 09:28:13;;;;;;;4.77;2.73;;;27.00;98.40;;;;;;5088702;28;20709;-57
2023/06/14 09:30:41;;;;;;;3.83;2.80;;;27.20;98.00;;;;;;5090897;28;20245;-57
2023/06/14 09:33:10;;;;;;;6.87;2.77;;;26.80;97.80;;;;;;5090102;28;20228;-57
2023/06/14 09:35:38;;;;;;;4.63;2.40;;;26.70;98.20;;;;;;5071701;28;20230;-57
2023/06/14 09:38:06;;;;;;;6.00;2.63;;;26.50;98.20;;;;;;5087999;28;20221;-57
2023/06/14 09:40:39;;;;;;;3.20;2.60;;;26.40;97.40;;;;;;5089881;28;20328;-56
2023/06/14 09:43:11;;;;;;;5.03;2.90;;;25.90;98.00;;;;;;5089830;28;20218;-57
2023/06/14 09:45:40;;;;;;;4.83;2.60;;;26.00;97.90;;;;;;5089666;28;20251;-57
2023/06/14 09:48:09;;;;;;;3.57;2.50;;;26.40;97.70;;;;;;5086095;28;20222;-57
2023/06/14 09:50:37;;;;;;;3.60;2.30;;;26.60;97.60;;;;;;5087835;28;20294;-57
2023/06/14 09:53:08;;;;;;;6.37;2.83;;;26.70;97.50;;;;;;5088349;28;20271;-57
2023/06/14 09:55:39;;;;;;;5.30;2.70;;;26.50;96.80;;;;;;5088621;28;20225;-57
2023/06/14 09:58:11;;;;;;;4.03;2.70;;;27.00;97.10;;;;;;5087014;28;20614;-57
2023/06/14 10:00:41;;;;;;;5.63;2.90;;;27.30;96.80;;;;;;5079492;28;20253;-57
2023/06/14 10:03:13;;;;;;;5.43;2.70;;;27.90;96.30;;;;;;5080762;28;20313;-57
2023/06/14 10:05:45;;;;;;;4.27;2.50;;;28.20;95.60;;;;;;5081197;28;20550;-57
2023/06/14 10:08:16;;;;;;;4.47;2.87;;;28.20;94.90;;;;;;5079332;28;20237;-56
2023/06/14 10:10:47;;;;;;;8.70;2.80;;;28.30;94.30;;;;;;5080040;28;20732;-57
2023/06/14 10:13:18;;;;;;;6.10;2.73;;;27.90;94.20;;;;;;5084225;28;20217;-57
2023/06/14 10:15:57;;;;;;;3.57;2.50;;;28.00;94.70;;;;;;5070155;28;20318;-56
2023/06/14 10:18:34;;;;;;;4.93;2.47;;;27.70;94.10;;;;;;5087074;28;20244;-57
2023/06/14 10:21:13;;;;;;;5.63;2.80;;;26.70;95.20;;;;;;5087915;28;21274;-56
2023/06/14 10:23:43;;;;;;;6.43;2.47;;;27.00;95.30;;;;;;5087943;28;20320;-57
2023/06/14 10:26:22;;;;;;;3.00;2.30;;;27.60;94.60;;;;;;5087618;28;21960;-57
2023/06/14 10:29:02;;;;;;;5.37;2.67;;;27.60;94.60;;;;;;5085618;28;20230;-56
2023/06/14 10:31:44;;;;;;;5.43;2.83;;;27.00;93.70;;;;;;5086994;28;20238;-57
2023/06/14 10:34:22;;;;;;;6.67;2.87;;;26.90;93.70;;;;;;5087378;28;20300;-57
2023/06/14 10:37:03;;;;;;;4.73;2.30;;;27.00;94.50;;;;;;5086993;28;20296;-57
2023/06/14 10:39:32;;;;;;;3.00;2.57;;;27.40;94.30;;;;;;5079676;28;20226;-57
2023/06/14 10:42:04;;;;;;;4.53;2.57;;;27.80;93.70;;;;;;5079562;28;20233;-57
2023/06/14 10:44:42;;;;;;;5.80;2.60;;;28.30;93.10;;;;;;5080016;28;20225;-57
2023/06/14 10:47:24;;;;;;;6.87;2.57;;;27.80;93.00;;;;;;5079349;28;20214;-56
2023/06/14 10:49:54;;;;;;;4.87;2.93;;;27.20;93.10;;;;;;5080234;28;20226;-58
2023/06/14 10:52:25;;;;;;;4.30;2.30;;;27.30;93.20;;;;;;5080906;28;20223;-58
2023/06/14 10:54:59;;;;;;;6.97;2.80;;;26.80;93.60;;;;;;5079538;28;20749;-58
2023/06/14 10:57:28;;;;;;;4.73;2.50;;;26.60;93.90;;;;;;5079219;28;20252;-57
2023/06/14 10:59:58;;;;;;;5.27;2.90;;;26.10;94.70;;;;;;5080488;28;20316;-57
2023/06/14 11:03:01;;;;;;;4.40;2.73;;;25.70;95.30;;;;;;5079512;28;20244;-57
2023/06/14 11:05:30;;;;;;;5.70;2.70;;;26.10;96.00;;;;;;5081926;28;20767;-57
2023/06/14 11:08:25;;;;;;;4.90;2.80;;;26.80;94.60;;;;;;5078105;28;21489;-58
2023/06/14 11:10:57;;;;;;;7.83;2.80;;;26.70;94.00;;;;;;5082388;28;20295;-57
2023/06/14 11:13:26;;;;;;;2.80;2.50;;;26.60;94.40;;;;;;5083706;28;20231;-57
2023/06/14 11:15:58;;;;;;;4.07;2.53;;;26.70;94.20;;;;;;5083227;28;20249;-57
2023/06/14 11:18:29;;;;;;;3.07;2.60;;;27.20;94.10;;;;;;5087252;28;20341;-57
2023/06/14 11:20:57;;;;;;;4.63;2.40;;;27.60;94.20;;;;;;5090079;28;20678;-57
2023/06/14 11:23:25;;;;;;;4.67;2.70;;;26.90;94.10;;;;;;5083088;28;20580;-57
2023/06/14 11:25:56;;;;;;;4.20;2.23;;;26.70;94.60;;;;;;5084066;28;21308;-57
2023/06/14 11:28:37;;;;;;;3.80;2.60;;;27.20;94.20;;;;;;5081330;28;20328;-58
2023/06/14 11:31:06;;;;;;;4.23;2.60;;;27.90;94.20;;;;;;5083111;28;20225;-58
2023/06/14 11:33:35;;;;;;;4.57;2.30;;;28.30;92.80;;;;;;5084170;28;20652;-57
2023/06/14 11:36:05;;;;;;;4.97;2.50;;;28.70;92.70;;;;;;5084895;28;20804;-57
2023/06/14 11:38:37;;;;;;;4.50;2.57;;;28.50;92.50;;;;;;5090061;28;20717;-57
2023/06/14 11:41:05;;;;;;;5.63;3.20;;;28.10;93.00;;;;;;5073136;28;20233;-57
2023/06/14 11:43:35;;;;;;;5.03;2.50;;;28.00;92.70;;;;;;5089715;28;20229;-57
2023/06/14 11:46:03;;;;;;;5.63;2.70;;;27.80;91.50;;;;;;5089719;28;20221;-57
2023/06/14 11:48:42;;;;;;;3.93;2.43;;;27.70;92.10;;;;;;5082623;28;20253;-58
2023/06/14 11:51:11;;;;;;;3.20;2.30;;;28.40;92.10;;;;;;5083756;28;20233;-58
2023/06/14 11:53:39;;;;;;;3.67;2.23;;;29.00;91.30;;;;;;5083511;28;20484;-58
2023/06/14 11:56:07;;;;;;;3.87;2.37;;;28.70;91.50;;;;;;5083727;28;20233;-58
2023/06/14 11:58:36;;;;;;;2.83;2.10;;;28.40;91.30;;;;;;5082005;28;20256;-57
2023/06/14 12:01:04;;;;;;;5.40;2.73;;;27.90;92.20;;;;;;5064728;28;20238;-57
2023/06/14 12:03:32;;;;;;;3.97;2.70;;;27.20;92.70;;;;;;5064152;28;20230;-57
2023/06/14 12:06:07;;;;;;;4.53;2.53;;;26.60;93.40;;;;;;5083556;28;21464;-58
2023/06/14 12:08:39;;;;;;;3.47;2.73;;;26.30;93.70;;;;;;5090824;28;20240;-57
2023/06/14 12:11:12;;;;;;;3.77;2.80;;;26.10;93.80;;;;;;5091023;28;20226;-57
2023/06/14 12:13:41;;;;;;;5.63;2.40;;;26.10;93.90;;;;;;5089190;28;20229;-57
2023/06/14 12:16:10;;;;;;;3.10;2.50;;;26.30;94.20;;;;;;5090401;28;20583;-58
2023/06/14 12:18:40;;;;;;;4.83;2.47;;;26.20;94.30;;;;;;5089379;28;20757;-57
2023/06/14 12:21:11;;;;;;;4.03;3.03;;;26.30;94.50;;;;;;5088758;28;20647;-58
2023/06/14 12:23:47;;;;;;;4.87;2.83;;;26.40;93.80;;;;;;5088647;28;20597;-57
2023/06/14 12:26:16;;;;;;;5.30;2.67;;;26.20;93.90;;;;;;5088562;28;20241;-58
2023/06/14 12:28:46;;;;;;;6.00;2.80;;;26.00;94.30;;;;;;5088852;28;20317;-57
2023/06/14 12:31:16;;;;;;;3.33;2.73;;;25.90;94.80;;;;;;5090497;28;20798;-57
2023/06/14 12:33:45;;;;;;;4.53;2.50;;;25.80;95.10;;;;;;5087955;28;20815;-57
2023/06/14 12:36:15;;;;;;;3.87;2.57;;;25.80;95.40;;;;;;5089428;28;20307;-58
2023/06/14 12:38:43;;;;;;;2.60;2.40;;;26.20;95.10;;;;;;5087665;28;20225;-58
2023/06/14 12:41:11;;;;;;;5.53;2.80;;;26.40;94.30;;;;;;5084437;28;20238;-57
2023/06/14 12:43:40;;;;;;;5.47;2.60;;;26.70;93.80;;;;;;5082382;28;20727;-57
2023/06/14 12:46:07;;;;;;;3.50;2.37;;;26.70;93.30;;;;;;5081500;28;20244;-57
2023/06/14 12:48:36;;;;;;;4.73;2.73;;;26.50;94.00;;;;;;5081631;28;20721;-56
2023/06/14 12:51:04;;;;;;;2.83;2.50;;;26.40;94.00;;;;;;5085181;28;20229;-57
2023/06/14 12:53:33;;;;;;;3.63;2.70;;;26.20;94.20;;;;;;5088095;28;20230;-56
2023/06/14 12:56:01;;;;;;;5.07;2.97;;;26.10;93.40;;;;;;5088978;28;20715;-56
2023/06/14 12:58:29;;;;;;;4.67;2.83;;;26.20;93.00;;;;;;5086553;28;20240;-57
2023/06/14 13:00:57;;;;;;;2.53;2.33;;;26.30;93.40;;;;;;5081605;28;20235;-57